GRZ530 Details

Departure: Sacramento International Airport (KSMF)
Arrival: Vancouver International Airport (CYVR)
Route: RBL J65 LMT J189 SEA PAE GRIZZ6


Current Weather Information
KSMF 230753Z 02003KT 9SM CLR 14/07 A3003 RMK AO2 SLP167 T01390067 402890078
CYVR 230800Z 00000KT 20SM FEW050 FEW250 07/06 A3045 RMK SC1CI1 SC TR SLP313